Time;durP1;ratioP1;P1;durP2;ratioP2;P2;SDS_P1;SDS_P2;PMS_P1;PMS_P2;Temp;Humidity;BMP_temperature;BMP_pressure;BME280_temperature;BME280_humidity;BME280_pressure;Samples;Min_cycle;Max_cycle;Signal;HPM_P1;HPM_P2
2023/12/12 00:01:49;;;;;;;113.15;32.75;;;;;;;;;;6246971;23;20387;-94
2023/12/12 00:04:43;;;;;;;261.45;40.80;;;;;;;;;;6254067;23;20012;-96
2023/12/12 00:07:11;;;;;;;151.75;34.05;;;;;;;;;;6248453;23;20004;-93
2023/12/12 00:14:57;;;;;;;473.58;50.53;;;;;;;;;;6259598;22;20217;-93
2023/12/12 00:17:23;;;;;;;228.98;38.70;;;;;;;;;;6229856;23;20004;-93
2023/12/12 00:19:49;;;;;;;208.55;32.72;;;;;;;;;;6229340;23;20024;-93
2023/12/12 00:22:15;;;;;;;142.63;31.83;;;;;;;;;;6231431;23;20015;-94
2023/12/12 00:24:44;;;;;;;98.10;31.73;;;;;;;;;;6227001;23;20020;-95
2023/12/12 00:27:10;;;;;;;229.77;36.33;;;;;;;;;;6222927;23;20334;-94
2023/12/12 00:29:38;;;;;;;242.07;37.33;;;;;;;;;;6224603;23;20000;-92
2023/12/12 00:32:14;;;;;;;175.20;35.13;;;;;;;;;;6224485;23;20004;-95
2023/12/12 00:34:40;;;;;;;151.27;35.90;;;;;;;;;;6223155;23;20008;-94
2023/12/12 00:37:06;;;;;;;327.55;52.08;;;;;;;;;;6220773;23;20024;-95
2023/12/12 00:39:42;;;;;;;216.13;42.05;;;;;;;;;;6221258;23;20330;-93
2023/12/12 00:42:08;;;;;;;204.52;39.88;;;;;;;;;;6221044;23;20437;-93
2023/12/12 00:44:40;;;;;;;153.57;37.85;;;;;;;;;;6222286;23;20338;-95
2023/12/12 00:47:22;;;;;;;241.07;41.78;;;;;;;;;;6229184;23;20008;-96
2023/12/12 00:52:52;;;;;;;195.65;40.50;;;;;;;;;;6258279;23;20023;-95
2023/12/12 00:55:22;;;;;;;91.00;34.90;;;;;;;;;;6223143;23;20066;-95
2023/12/12 00:57:49;;;;;;;71.47;31.98;;;;;;;;;;6251049;23;20007;-95
2023/12/12 01:00:16;;;;;;;136.63;37.22;;;;;;;;;;6224902;23;20008;-96
2023/12/12 01:02:42;;;;;;;300.00;45.72;;;;;;;;;;6217776;23;20091;-93
2023/12/12 01:05:08;;;;;;;95.28;34.13;;;;;;;;;;6224405;23;20004;-95
2023/12/12 01:07:34;;;;;;;79.95;31.38;;;;;;;;;;6226087;23;20146;-91
2023/12/12 01:10:00;;;;;;;62.03;31.73;;;;;;;;;;6224723;23;20005;-92
2023/12/12 01:12:28;;;;;;;70.15;31.85;;;;;;;;;;6227280;22;20058;-94
2023/12/12 01:14:58;;;;;;;313.17;48.60;;;;;;;;;;6224753;22;20059;-92
2023/12/12 01:20:28;;;;;;;159.68;38.10;;;;;;;;;;6248690;23;20505;-92
2023/12/12 01:22:54;;;;;;;248.50;41.75;;;;;;;;;;6252198;23;20016;-93
2023/12/12 01:25:20;;;;;;;163.15;38.67;;;;;;;;;;6248013;23;20031;-94
2023/12/12 01:28:17;;;;;;;176.52;39.50;;;;;;;;;;6250273;23;20057;-96
2023/12/12 01:30:44;;;;;;;131.38;34.60;;;;;;;;;;6249713;23;20054;-94
2023/12/12 01:33:10;;;;;;;164.32;36.38;;;;;;;;;;6252073;23;20077;-94
2023/12/12 01:35:37;;;;;;;205.48;39.60;;;;;;;;;;6252356;23;20378;-93
2023/12/12 01:38:03;;;;;;;194.02;39.78;;;;;;;;;;6226549;23;20000;-94
2023/12/12 01:40:29;;;;;;;119.82;34.80;;;;;;;;;;6251493;23;20004;-95
2023/12/12 01:43:06;;;;;;;220.57;40.47;;;;;;;;;;6247702;23;20016;-93
2023/12/12 01:45:32;;;;;;;53.78;25.48;;;;;;;;;;6249836;23;20004;-92
2023/12/12 01:47:58;;;;;;;124.60;29.65;;;;;;;;;;6248984;23;20012;-94
2023/12/12 01:50:24;;;;;;;379.20;48.97;;;;;;;;;;6251084;23;20000;-96
2023/12/12 01:52:57;;;;;;;252.15;41.03;;;;;;;;;;6249368;23;20026;-96
2023/12/12 01:55:23;;;;;;;216.55;37.97;;;;;;;;;;6248381;23;20024;-95
2023/12/12 01:58:05;;;;;;;158.13;34.85;;;;;;;;;;6247615;23;20065;-96
2023/12/12 02:00:32;;;;;;;86.05;28.33;;;;;;;;;;6248958;23;20441;-95
2023/12/12 02:02:58;;;;;;;105.60;30.48;;;;;;;;;;6246899;23;20031;-93
2023/12/12 02:10:40;;;;;;;52.70;26.35;;;;;;;;;;6252000;22;20016;-95
2023/12/12 02:13:06;;;;;;;263.55;43.83;;;;;;;;;;6224019;23;20095;-93
2023/12/12 02:18:36;;;;;;;251.45;42.10;;;;;;;;;;6250489;23;20003;-92
2023/12/12 02:21:03;;;;;;;53.25;26.10;;;;;;;;;;6224266;23;20008;-93
2023/12/12 02:23:29;;;;;;;233.38;38.53;;;;;;;;;;6225764;23;20008;-92
2023/12/12 02:25:56;;;;;;;62.88;28.92;;;;;;;;;;6221100;23;20011;-91
2023/12/12 02:28:22;;;;;;;121.80;34.65;;;;;;;;;;6224877;23;20040;-92
2023/12/12 02:31:10;;;;;;;179.50;37.13;;;;;;;;;;6223219;23;20429;-94
2023/12/12 02:33:36;;;;;;;97.53;31.98;;;;;;;;;;6223249;23;20004;-95
2023/12/12 02:36:02;;;;;;;54.10;26.38;;;;;;;;;;6221808;23;20008;-96
2023/12/12 02:39:02;;;;;;;194.18;37.78;;;;;;;;;;6222312;23;20024;-94
2023/12/12 02:41:28;;;;;;;120.72;34.80;;;;;;;;;;6223627;23;20341;-95
2023/12/12 02:44:00;;;;;;;147.93;34.58;;;;;;;;;;6222959;23;20075;-96
2023/12/12 02:46:26;;;;;;;128.07;35.88;;;;;;;;;;6221875;23;20000;-91
2023/12/12 02:48:56;;;;;;;122.13;33.03;;;;;;;;;;6222798;23;20318;-94
2023/12/12 02:51:22;;;;;;;75.82;27.58;;;;;;;;;;6236100;22;20008;-92
2023/12/12 02:53:50;;;;;;;90.35;29.50;;;;;;;;;;6243917;22;20008;-95
2023/12/12 02:56:20;;;;;;;103.22;30.50;;;;;;;;;;6226392;23;20418;-94
2023/12/12 02:58:46;;;;;;;79.70;28.60;;;;;;;;;;6222732;23;20010;-95
2023/12/12 03:01:13;;;;;;;93.95;30.60;;;;;;;;;;6221913;23;20019;-93
2023/12/12 03:03:39;;;;;;;169.27;36.55;;;;;;;;;;6225064;23;20007;-95
2023/12/12 03:06:05;;;;;;;238.88;37.30;;;;;;;;;;6222281;23;20008;-95
2023/12/12 03:08:31;;;;;;;87.63;29.67;;;;;;;;;;6220942;22;20353;-94
2023/12/12 03:10:57;;;;;;;62.80;27.98;;;;;;;;;;6221350;23;20090;-93
2023/12/12 03:13:24;;;;;;;50.47;24.48;;;;;;;;;;6221339;23;20001;-93
2023/12/12 03:15:50;;;;;;;49.65;24.45;;;;;;;;;;6221297;23;20008;-93
2023/12/12 03:18:16;;;;;;;61.55;26.60;;;;;;;;;;6221222;23;20031;-94
2023/12/12 03:20:42;;;;;;;49.10;24.67;;;;;;;;;;6222023;23;20046;-93
2023/12/12 03:23:08;;;;;;;82.40;29.58;;;;;;;;;;6222345;23;20015;-94
2023/12/12 03:25:34;;;;;;;50.97;24.27;;;;;;;;;;6221169;23;20000;-93
2023/12/12 03:28:00;;;;;;;49.08;23.80;;;;;;;;;;6220968;23;20076;-94
2023/12/12 03:30:27;;;;;;;58.40;25.23;;;;;;;;;;6221306;23;20004;-94
2023/12/12 03:32:53;;;;;;;114.85;32.55;;;;;;;;;;6196286;23;20004;-93
2023/12/12 03:35:20;;;;;;;116.68;30.80;;;;;;;;;;6214842;23;20008;-94
2023/12/12 03:37:46;;;;;;;114.53;29.23;;;;;;;;;;6221026;23;20004;-93
2023/12/12 03:40:12;;;;;;;99.80;29.80;;;;;;;;;;6220923;23;20437;-94
2023/12/12 03:42:38;;;;;;;61.65;25.90;;;;;;;;;;6220740;23;20097;-95
2023/12/12 03:45:06;;;;;;;81.15;29.75;;;;;;;;;;6221379;23;20015;-94
2023/12/12 03:47:32;;;;;;;223.70;37.22;;;;;;;;;;6214777;23;20019;-92
2023/12/12 03:49:59;;;;;;;130.07;33.75;;;;;;;;;;6248023;23;20034;-94
2023/12/12 03:52:26;;;;;;;57.65;26.83;;;;;;;;;;6254728;23;20057;-94
2023/12/12 03:54:55;;;;;;;96.60;30.10;;;;;;;;;;6229829;23;20004;-94
2023/12/12 03:57:21;;;;;;;168.60;35.83;;;;;;;;;;6225520;23;20008;-93
2023/12/12 03:59:49;;;;;;;133.18;35.42;;;;;;;;;;6235176;22;20011;-93
2023/12/12 04:02:18;;;;;;;68.95;28.08;;;;;;;;;;6228437;23;20016;-95
2023/12/12 04:04:44;;;;;;;130.18;33.67;;;;;;;;;;6222694;23;20011;-92
2023/12/12 04:07:13;;;;;;;51.40;26.20;;;;;;;;;;6221192;23;20015;-95
2023/12/12 04:09:40;;;;;;;131.13;32.45;;;;;;;;;;6221656;22;20380;-95
2023/12/12 04:12:17;;;;;;;99.72;31.90;;;;;;;;;;6246829;23;20115;-94
2023/12/12 04:14:43;;;;;;;147.98;36.10;;;;;;;;;;6244789;23;20503;-94
2023/12/12 04:17:13;;;;;;;67.63;27.45;;;;;;;;;;6246497;23;20011;-95
2023/12/12 04:19:39;;;;;;;69.93;27.92;;;;;;;;;;6246211;23;20004;-94
2023/12/12 04:22:05;;;;;;;79.80;30.63;;;;;;;;;;6246028;23;20476;-95
2023/12/12 04:24:31;;;;;;;55.80;26.00;;;;;;;;;;6246085;23;20037;-92
2023/12/12 04:26:57;;;;;;;48.65;24.63;;;;;;;;;;6246030;23;20031;-95
2023/12/12 04:29:24;;;;;;;63.65;27.45;;;;;;;;;;6246589;23;20004;-92
2023/12/12 04:31:56;;;;;;;52.95;25.33;;;;;;;;;;6246402;23;20054;-94
2023/12/12 04:34:22;;;;;;;77.68;29.83;;;;;;;;;;6247921;23;20027;-93
2023/12/12 04:36:48;;;;;;;105.07;33.13;;;;;;;;;;6247695;23;20038;-94
2023/12/12 04:39:17;;;;;;;60.47;27.90;;;;;;;;;;6248520;23;20082;-94
2023/12/12 04:41:43;;;;;;;67.75;29.13;;;;;;;;;;6223186;23;20012;-93
2023/12/12 04:44:10;;;;;;;96.55;33.17;;;;;;;;;;6248653;23;20070;-92
2023/12/12 04:46:38;;;;;;;68.50;28.63;;;;;;;;;;6247908;23;20004;-94
2023/12/12 04:49:05;;;;;;;43.58;22.60;;;;;;;;;;6248561;23;20012;-94
2023/12/12 04:51:31;;;;;;;89.97;30.88;;;;;;;;;;6248892;23;20039;-94
2023/12/12 04:54:01;;;;;;;84.88;30.70;;;;;;;;;;6252274;23;20004;-93
2023/12/12 04:56:28;;;;;;;73.82;28.70;;;;;;;;;;6251443;23;20425;-94
2023/12/12 04:58:54;;;;;;;56.40;25.60;;;;;;;;;;6248158;23;20004;-95
2023/12/12 05:01:20;;;;;;;56.67;26.35;;;;;;;;;;6247680;23;20345;-94
2023/12/12 05:03:46;;;;;;;65.68;28.25;;;;;;;;;;6248170;23;20004;-94
2023/12/12 05:06:14;;;;;;;71.03;28.58;;;;;;;;;;6248638;23;20019;-94
2023/12/12 05:08:41;;;;;;;51.25;23.88;;;;;;;;;;6247867;22;20011;-95
2023/12/12 05:11:08;;;;;;;43.38;22.10;;;;;;;;;;6223569;23;20020;-92
2023/12/12 05:13:34;;;;;;;44.55;22.83;;;;;;;;;;6221938;23;20079;-92
2023/12/12 05:16:00;;;;;;;62.38;26.95;;;;;;;;;;6222504;23;20068;-94
2023/12/12 05:18:26;;;;;;;22.17;10.02;;;;;;;;;;6222177;23;20000;-93
2023/12/12 05:20:52;;;;;;;16.02;7.70;;;;;;;;;;6222593;23;20429;-92
2023/12/12 05:23:19;;;;;;;39.55;20.60;;;;;;;;;;6222459;23;20008;-92
2023/12/12 05:28:48;;;;;;;34.60;16.98;;;;;;;;;;6248558;23;20030;-92
2023/12/12 05:31:15;;;;;;;40.33;19.85;;;;;;;;;;6234637;22;20008;-91
2023/12/12 05:33:43;;;;;;;36.30;19.27;;;;;;;;;;6248406;22;20019;-91
2023/12/12 05:36:10;;;;;;;45.45;21.77;;;;;;;;;;6208350;23;20064;-96
2023/12/12 05:38:44;;;;;;;40.72;21.13;;;;;;;;;;6253800;23;20008;-94
2023/12/12 05:41:10;;;;;;;42.95;21.13;;;;;;;;;;6222601;23;20000;-93
2023/12/12 05:43:36;;;;;;;60.17;25.58;;;;;;;;;;6222297;23;20086;-93
2023/12/12 05:46:04;;;;;;;45.83;22.90;;;;;;;;;;6222653;23;20000;-94
2023/12/12 05:48:30;;;;;;;31.67;17.00;;;;;;;;;;6227997;22;19993;-92
2023/12/12 05:50:57;;;;;;;48.08;24.77;;;;;;;;;;6228012;23;20008;-92
2023/12/12 05:53:33;;;;;;;46.80;23.77;;;;;;;;;;6231869;23;20125;-93
2023/12/12 05:56:31;;;;;;;;;;;;;;;;;;;;;
2023/12/12 05:59:00;;;;;;;48.40;25.42;;;;;;;;;;6245496;23;20071;-94
2023/12/12 06:01:27;;;;;;;42.40;22.77;;;;;;;;;;6222039;23;20083;-92
2023/12/12 06:04:07;;;;;;;34.90;16.80;;;;;;;;;;6197594;23;20016;-95
2023/12/12 06:06:33;;;;;;;11.05;3.42;;;;;;;;;;6222838;23;20032;-93
2023/12/12 06:09:00;;;;;;;12.60;2.67;;;;;;;;;;6229380;22;20008;-92
2023/12/12 06:11:26;;;;;;;8.55;3.20;;;;;;;;;;6268411;22;20429;-90
2023/12/12 06:13:52;;;;;;;11.88;3.05;;;;;;;;;;6263197;22;20015;-91
2023/12/12 06:19:27;;;;;;;9.00;2.90;;;;;;;;;;6238258;22;20027;-94
2023/12/12 06:21:54;;;;;;;10.93;3.13;;;;;;;;;;6187625;23;20025;-91
2023/12/12 06:24:20;;;;;;;11.75;3.50;;;;;;;;;;6188829;23;20017;-95
2023/12/12 06:26:54;;;;;;;10.98;2.92;;;;;;;;;;6162226;23;20045;-93
2023/12/12 06:29:20;;;;;;;8.25;2.70;;;;;;;;;;6186636;23;20453;-93
2023/12/12 06:31:46;;;;;;;10.48;2.72;;;;;;;;;;6188504;23;20009;-91
2023/12/12 06:34:13;;;;;;;8.20;2.38;;;;;;;;;;6188699;23;20008;-93
2023/12/12 06:36:39;;;;;;;12.52;3.45;;;;;;;;;;6189617;23;20020;-93
2023/12/12 06:39:09;;;;;;;8.27;3.55;;;;;;;;;;6191061;23;20008;-93
2023/12/12 06:42:15;;;;;;;9.27;2.53;;;;;;;;;;6190949;23;20017;-96
2023/12/12 06:50:25;;;;;;;9.73;2.58;;;;;;;;;;6250278;22;20054;-93
2023/12/12 06:58:16;;;;;;;9.10;3.28;;;;;;;;;;6225597;22;20024;-93
2023/12/12 07:00:46;;;;;;;8.70;2.40;;;;;;;;;;6195377;22;20133;-90
2023/12/12 07:14:33;;;;;;;7.85;2.22;;;;;;;;;;6228041;22;20086;-93
2023/12/12 07:22:30;;;;;;;9.02;2.80;;;;;;;;;;6258069;23;20077;-93
2023/12/12 07:25:06;;;;;;;16.05;4.82;;;;;;;;;;6230642;23;19984;-95
2023/12/12 07:27:39;;;;;;;19.75;6.40;;;;;;;;;;6239111;23;19984;-96
2023/12/12 07:33:08;;;;;;;12.52;3.42;;;;;;;;;;6254927;23;20245;-92
2023/12/12 07:36:06;;;;;;;12.07;3.20;;;;;;;;;;6229487;23;20079;-95
2023/12/12 07:38:32;;;;;;;11.18;2.85;;;;;;;;;;6223127;23;20062;-92
2023/12/12 07:41:01;;;;;;;8.98;3.33;;;;;;;;;;6249244;22;20020;-95
2023/12/12 07:43:27;;;;;;;9.10;2.33;;;;;;;;;;6234085;22;20025;-93
2023/12/12 07:45:53;;;;;;;7.13;2.17;;;;;;;;;;6220521;23;20002;-90
2023/12/12 07:48:23;;;;;;;4.32;1.92;;;;;;;;;;6219359;23;20012;-96
2023/12/12 07:50:49;;;;;;;8.45;2.00;;;;;;;;;;6217411;23;20035;-93
2023/12/12 07:53:15;;;;;;;7.70;2.60;;;;;;;;;;6218435;23;20070;-93
2023/12/12 07:55:41;;;;;;;9.93;2.38;;;;;;;;;;6220588;23;20000;-93
2023/12/12 07:58:07;;;;;;;4.07;2.20;;;;;;;;;;6221862;23;20016;-94
2023/12/12 08:00:34;;;;;;;8.25;2.80;;;;;;;;;;6221201;23;20388;-94
2023/12/12 08:03:08;;;;;;;12.70;2.83;;;;;;;;;;6224611;22;20062;-95
2023/12/12 08:05:37;;;;;;;9.40;3.17;;;;;;;;;;6284273;22;19984;-90
2023/12/12 08:08:15;;;;;;;6.75;3.17;;;;;;;;;;6282087;22;20012;-95
2023/12/12 08:10:51;;;;;;;11.68;3.40;;;;;;;;;;6277454;22;20001;-93
2023/12/12 08:13:17;;;;;;;9.25;3.03;;;;;;;;;;6282159;22;19984;-91
2023/12/12 08:15:44;;;;;;;6.38;3.08;;;;;;;;;;6296629;22;20094;-91
2023/12/12 08:18:11;;;;;;;9.68;2.80;;;;;;;;;;6280602;22;20062;-93
2023/12/12 08:20:39;;;;;;;11.00;3.50;;;;;;;;;;6274174;22;20058;-93
2023/12/12 08:23:06;;;;;;;11.65;3.92;;;;;;;;;;6271889;22;20020;-94
2023/12/12 08:25:33;;;;;;;11.30;3.78;;;;;;;;;;6272653;22;20061;-93
2023/12/12 08:27:59;;;;;;;8.32;3.95;;;;;;;;;;6270882;22;20008;-91
2023/12/12 08:30:25;;;;;;;8.93;3.95;;;;;;;;;;6271506;22;20063;-94
2023/12/12 08:32:51;;;;;;;8.35;4.68;;;;;;;;;;6271393;22;20083;-93
2023/12/12 08:35:18;;;;;;;8.23;4.03;;;;;;;;;;6271616;22;20004;-95
2023/12/12 08:37:57;;;;;;;6.63;4.63;;;;;;;;;;6249812;22;20063;-95
2023/12/12 08:40:23;;;;;;;6.80;4.50;;;;;;;;;;6276695;22;20034;-94
2023/12/12 08:42:58;;;;;;;10.30;9.30;;;;;;;;;;6272882;22;20035;-96
2023/12/12 08:45:33;;;;;;;10.07;5.50;;;;;;;;;;6248351;23;20026;-95
2023/12/12 08:48:00;;;;;;;7.30;4.55;;;;;;;;;;6250988;23;20004;-93
2023/12/12 08:51:06;;;;;;;6.95;3.97;;;;;;;;;;6271442;22;20011;-93
2023/12/12 08:53:32;;;;;;;7.07;4.68;;;;;;;;;;6230007;23;20091;-95
2023/12/12 08:55:58;;;;;;;9.63;5.32;;;;;;;;;;6271424;22;20036;-91
2023/12/12 08:58:27;;;;;;;7.90;4.68;;;;;;;;;;6272776;22;20004;-92
2023/12/12 09:00:54;;;;;;;7.18;4.30;;;;;;;;;;6271781;22;20039;-90
2023/12/12 09:03:20;;;;;;;7.93;4.00;;;;;;;;;;6272756;22;20024;-92
2023/12/12 09:06:05;;;;;;;9.32;4.18;;;;;;;;;;6271040;22;20062;-94
2023/12/12 09:08:31;;;;;;;6.43;3.38;;;;;;;;;;6271742;22;20055;-91
2023/12/12 09:11:12;;;;;;;9.38;3.60;;;;;;;;;;6271543;22;20004;-96
2023/12/12 09:13:39;;;;;;;7.40;3.70;;;;;;;;;;6272021;22;20067;-93
2023/12/12 09:16:05;;;;;;;8.57;4.43;;;;;;;;;;6271217;22;20061;-91
2023/12/12 09:18:32;;;;;;;8.15;4.75;;;;;;;;;;6273140;22;20075;-96
2023/12/12 09:20:58;;;;;;;10.35;4.15;;;;;;;;;;6223207;23;20008;-91
2023/12/12 09:23:27;;;;;;;10.32;4.55;;;;;;;;;;6273881;22;20016;-91
2023/12/12 09:25:54;;;;;;;8.50;4.70;;;;;;;;;;6272545;22;20000;-92
2023/12/12 09:28:21;;;;;;;7.30;4.38;;;;;;;;;;6273035;22;20008;-90
2023/12/12 09:30:47;;;;;;;7.07;4.05;;;;;;;;;;6273943;22;20042;-92
2023/12/12 09:33:13;;;;;;;8.85;4.05;;;;;;;;;;6283004;22;20030;-92
2023/12/12 09:35:49;;;;;;;7.57;4.30;;;;;;;;;;6288380;22;20123;-93
2023/12/12 09:40:59;;;;;;;8.30;4.00;;;;;;;;;;6275262;22;20054;-91
2023/12/12 09:43:26;;;;;;;6.80;4.25;;;;;;;;;;6252616;22;20012;-95
2023/12/12 09:45:56;;;;;;;7.70;3.92;;;;;;;;;;6227593;22;20459;-94
2023/12/12 09:48:23;;;;;;;8.07;3.85;;;;;;;;;;6252814;22;20014;-94
2023/12/12 09:50:50;;;;;;;7.93;4.50;;;;;;;;;;6253231;22;20498;-90
2023/12/12 09:53:17;;;;;;;7.88;3.90;;;;;;;;;;6252318;22;20004;-91
2023/12/12 09:55:45;;;;;;;9.85;4.30;;;;;;;;;;6252520;22;20000;-91
2023/12/12 09:58:11;;;;;;;9.63;4.18;;;;;;;;;;6257524;22;20008;-92
2023/12/12 10:00:37;;;;;;;7.35;4.00;;;;;;;;;;6252493;22;20083;-93
2023/12/12 10:03:05;;;;;;;7.68;4.22;;;;;;;;;;6253943;22;20016;-91
2023/12/12 10:05:33;;;;;;;8.18;4.55;;;;;;;;;;6253895;22;20004;-92
2023/12/12 10:08:18;;;;;;;8.82;3.83;;;;;;;;;;6255929;22;20015;-96
2023/12/12 10:11:37;;;;;;;8.13;4.70;;;;;;;;;;6279961;22;20028;-95
2023/12/12 10:14:08;;;;;;;8.88;4.32;;;;;;;;;;6281278;22;20075;-93
2023/12/12 10:20:00;;;;;;;11.15;5.20;;;;;;;;;;6165056;23;20019;-96
2023/12/12 10:22:30;;;;;;;8.48;4.35;;;;;;;;;;6240646;22;20440;-91
2023/12/12 10:28:00;;;;;;;8.70;4.30;;;;;;;;;;6281458;22;20061;-92
2023/12/12 10:30:29;;;;;;;8.13;3.67;;;;;;;;;;6257872;22;20086;-91
2023/12/12 10:32:55;;;;;;;7.88;4.35;;;;;;;;;;6264648;22;19998;-91
2023/12/12 10:35:33;;;;;;;8.07;3.97;;;;;;;;;;6256887;22;20020;-95
2023/12/12 10:38:06;;;;;;;10.20;4.30;;;;;;;;;;6249285;22;20007;-93
2023/12/12 10:43:56;;;;;;;10.13;4.43;;;;;;;;;;6106988;23;20014;-94
2023/12/12 10:46:24;;;;;;;8.98;4.07;;;;;;;;;;6251180;23;20009;-93
2023/12/12 10:48:55;;;;;;;10.38;4.47;;;;;;;;;;6223639;23;20307;-95
2023/12/12 10:51:24;;;;;;;10.85;4.30;;;;;;;;;;6220017;23;20008;-96
2023/12/12 10:56:57;;;;;;;8.38;3.47;;;;;;;;;;6247370;22;20131;-93
2023/12/12 10:59:26;;;;;;;13.70;4.22;;;;;;;;;;6240313;23;20015;-93
2023/12/12 11:01:54;;;;;;;10.30;3.70;;;;;;;;;;6271635;22;20027;-89
2023/12/12 11:04:21;;;;;;;10.00;3.85;;;;;;;;;;6238087;23;20011;-90
2023/12/12 11:06:48;;;;;;;8.98;3.63;;;;;;;;;;6237080;22;20039;-91
2023/12/12 11:09:25;;;;;;;12.00;4.03;;;;;;;;;;6237467;22;20000;-94
2023/12/12 11:11:52;;;;;;;10.05;4.55;;;;;;;;;;6216392;23;20004;-94
2023/12/12 11:14:19;;;;;;;10.02;4.15;;;;;;;;;;6240328;22;20023;-91
2023/12/12 11:16:47;;;;;;;10.57;4.05;;;;;;;;;;6262982;23;20000;-91
2023/12/12 11:19:17;;;;;;;9.00;3.78;;;;;;;;;;6236935;22;20078;-90
2023/12/12 11:21:47;;;;;;;9.98;4.80;;;;;;;;;;6235897;23;20008;-90
2023/12/12 11:24:16;;;;;;;7.78;4.20;;;;;;;;;;6237374;22;19992;-91
2023/12/12 11:26:43;;;;;;;10.90;3.85;;;;;;;;;;6242458;22;19996;-94
2023/12/12 11:29:31;;;;;;;7.65;4.22;;;;;;;;;;6242727;22;20005;-94
2023/12/12 11:31:59;;;;;;;8.80;4.10;;;;;;;;;;6229810;23;20016;-89
2023/12/12 11:34:26;;;;;;;9.02;4.05;;;;;;;;;;6231967;23;20004;-91
2023/12/12 11:36:53;;;;;;;7.22;3.70;;;;;;;;;;6234962;23;20010;-90
2023/12/12 11:39:39;;;;;;;8.30;3.05;;;;;;;;;;6238514;22;20026;-93
2023/12/12 11:42:46;;;;;;;6.88;3.63;;;;;;;;;;6265919;22;20015;-94
2023/12/12 11:45:12;;;;;;;8.70;4.05;;;;;;;;;;6279949;22;20003;-92
2023/12/12 11:47:41;;;;;;;10.38;4.60;;;;;;;;;;6284423;22;20069;-89
2023/12/12 11:50:19;;;;;;;9.32;4.22;;;;;;;;;;6255001;22;20055;-93
2023/12/12 11:52:45;;;;;;;8.68;3.70;;;;;;;;;;6257306;22;20008;-92
2023/12/12 11:55:28;;;;;;;6.80;4.18;;;;;;;;;;6258875;22;20077;-91
2023/12/12 11:57:58;;;;;;;12.90;4.60;;;;;;;;;;6260650;22;20008;-92
2023/12/12 12:00:24;;;;;;;8.50;4.22;;;;;;;;;;6260156;22;20035;-91
2023/12/12 12:03:08;;;;;;;10.98;4.25;;;;;;;;;;6263700;22;20017;-92
2023/12/12 12:05:59;;;;;;;15.55;7.43;;;;;;;;;;6268746;22;20030;-95
2023/12/12 12:08:49;;;;;;;18.58;7.90;;;;;;;;;;6255490;22;20000;-95
2023/12/12 12:11:19;;;;;;;17.05;7.88;;;;;;;;;;6143199;22;19998;-95
2023/12/12 12:14:02;;;;;;;19.80;7.20;;;;;;;;;;6258749;22;20022;-96
2023/12/12 12:16:29;;;;;;;;;;;;;;;;;;6285231;22;20008;-91
2023/12/12 12:19:13;;;;;;;8.20;4.68;;;;;;;;;;6285985;22;19930;-96
2023/12/12 12:28:53;;;;;;;11.30;4.32;;;;;;;;;;6111505;23;20018;-95
2023/12/12 12:34:13;;;;;;;9.27;3.50;;;;;;;;;;6266457;22;20024;-95
2023/12/12 12:39:22;;;;;;;11.98;4.45;;;;;;;;;;6244620;22;20034;-91
2023/12/12 12:41:53;;;;;;;9.15;3.75;;;;;;;;;;6220441;22;20016;-93
2023/12/12 12:44:33;;;;;;;10.65;4.40;;;;;;;;;;6197050;22;20104;-96
2023/12/12 12:47:10;;;;;;;17.42;6.45;;;;;;;;;;6214482;23;20096;-96
2023/12/12 12:49:36;;;;;;;14.55;7.07;;;;;;;;;;6215802;23;19993;-92
2023/12/12 12:52:02;;;;;;;20.38;6.95;;;;;;;;;;6214011;23;20057;-91
2023/12/12 12:57:05;;;;;;;15.07;7.65;;;;;;;;;;6258829;22;20105;-92
2023/12/12 12:59:31;;;;;;;18.17;7.18;;;;;;;;;;6282351;22;20126;-92
2023/12/12 13:02:18;;;;;;;15.30;6.25;;;;;;;;;;6281698;22;20437;-95
2023/12/12 13:04:44;;;;;;;18.13;7.50;;;;;;;;;;6260848;22;20003;-96
2023/12/12 13:07:21;;;;;;;15.30;7.05;;;;;;;;;;6283417;22;20003;-92
2023/12/12 13:10:09;;;;;;;12.35;5.70;;;;;;;;;;6283301;22;20008;-95
2023/12/12 13:15:30;;;;;;;14.13;5.28;;;;;;;;;;6239319;22;20024;-92
2023/12/12 13:17:59;;;;;;;9.50;4.50;;;;;;;;;;6256873;23;19996;-93
2023/12/12 13:20:25;;;;;;;10.73;4.50;;;;;;;;;;6223879;23;20245;-92
2023/12/12 13:22:54;;;;;;;13.38;5.22;;;;;;;;;;6227192;23;20046;-93
2023/12/12 13:25:26;;;;;;;20.80;8.65;;;;;;;;;;6231312;22;20000;-90
2023/12/12 13:27:53;;;;;;;17.85;9.80;;;;;;;;;;6227441;23;20084;-91
2023/12/12 13:37:38;;;;;;;15.80;4.50;;;;;;;;;;5999446;23;20010;-90
2023/12/12 13:43:53;;;;;;;9.48;4.88;;;;;;;;;;5949254;23;20348;-96
2023/12/12 13:46:19;;;;;;;10.20;3.47;;;;;;;;;;6065247;23;20090;-90
2023/12/12 13:48:57;;;;;;;11.50;3.55;;;;;;;;;;6095714;23;19994;-96
2023/12/12 13:54:34;;;;;;;10.88;3.60;;;;;;;;;;5990366;24;20023;-90
2023/12/12 13:57:00;;;;;;;10.38;3.53;;;;;;;;;;5966408;23;20032;-91
2023/12/12 13:59:27;;;;;;;13.05;6.60;;;;;;;;;;6187765;23;20011;-90
2023/12/12 14:05:07;;;;;;;24.00;11.27;;;;;;;;;;6100411;23;20013;-96
2023/12/12 14:07:34;;;;;;;24.27;12.07;;;;;;;;;;6098044;23;20459;-91
2023/12/12 14:14:00;;;;;;;26.90;12.82;;;;;;;;;;6043161;23;20018;-92
2023/12/12 14:16:36;;;;;;;29.42;12.90;;;;;;;;;;6119172;23;20025;-96
2023/12/12 14:19:02;;;;;;;29.23;14.27;;;;;;;;;;6158035;23;20005;-91
2023/12/12 14:21:47;;;;;;;31.45;14.52;;;;;;;;;;6163002;23;20005;-96
2023/12/12 14:24:52;;;;;;;30.42;15.32;;;;;;;;;;6245603;23;20007;-96
2023/12/12 14:27:19;;;;;;;29.10;14.05;;;;;;;;;;6126875;23;20446;-91
2023/12/12 14:30:19;;;;;;;30.95;14.02;;;;;;;;;;6108698;23;20043;-96
2023/12/12 14:32:45;;;;;;;29.95;13.95;;;;;;;;;;6195700;23;20022;-91
2023/12/12 14:35:50;;;;;;;26.08;12.73;;;;;;;;;;6225296;23;20000;-96
2023/12/12 14:38:27;;;;;;;31.83;15.15;;;;;;;;;;6257227;23;20863;-96
2023/12/12 14:43:57;;;;;;;32.95;16.95;;;;;;;;;;6256546;23;20028;-92
2023/12/12 14:49:01;;;;;;;31.50;15.93;;;;;;;;;;6222389;22;20043;-90
2023/12/12 15:01:07;;;;;;;35.60;17.75;;;;;;;;;;6252142;23;20070;-92
2023/12/12 15:03:33;;;;;;;30.63;17.27;;;;;;;;;;6227055;23;20016;-90
2023/12/12 15:06:03;;;;;;;35.83;19.30;;;;;;;;;;6229501;23;20011;-95
2023/12/12 15:08:29;;;;;;;36.33;18.65;;;;;;;;;;6216432;23;20005;-91
2023/12/12 15:10:55;;;;;;;32.92;18.23;;;;;;;;;;6225133;23;20540;-90
2023/12/12 15:13:21;;;;;;;34.28;19.38;;;;;;;;;;6224811;22;20323;-94
2023/12/12 15:15:47;;;;;;;41.53;21.40;;;;;;;;;;6238274;22;20004;-91
2023/12/12 15:18:26;;;;;;;43.47;23.67;;;;;;;;;;6232748;22;20066;-93
2023/12/12 15:20:52;;;;;;;34.35;19.77;;;;;;;;;;6240330;22;20023;-94
2023/12/12 15:23:18;;;;;;;38.35;20.15;;;;;;;;;;6228927;22;20020;-93
2023/12/12 15:25:44;;;;;;;36.22;20.08;;;;;;;;;;6223465;23;20000;-94
2023/12/12 15:28:12;;;;;;;36.97;19.17;;;;;;;;;;6249403;23;20016;-93
2023/12/12 15:30:38;;;;;;;37.45;18.83;;;;;;;;;;6223897;22;20089;-93
2023/12/12 15:33:04;;;;;;;35.25;18.23;;;;;;;;;;6235569;23;20008;-93
2023/12/12 15:35:31;;;;;;;31.08;17.73;;;;;;;;;;6221228;23;20004;-93
2023/12/12 15:41:26;;;;;;;37.00;20.05;;;;;;;;;;6113157;23;20021;-96
2023/12/12 15:44:14;;;;;;;39.90;21.05;;;;;;;;;;6084811;23;20019;-95
2023/12/12 15:46:41;;;;;;;38.35;20.92;;;;;;;;;;6223633;22;20017;-93
2023/12/12 15:52:06;;;;;;;38.75;21.85;;;;;;;;;;6237151;22;19999;-90
2023/12/12 15:59:44;;;;;;;42.92;20.17;;;;;;;;;;6247338;22;20229;-95
2023/12/12 16:02:10;;;;;;;53.78;22.95;;;;;;;;;;6228782;23;20489;-93
2023/12/12 16:04:49;;;;;;;49.63;23.60;;;;;;;;;;6250449;22;20389;-94
2023/12/12 16:07:18;;;;;;;42.17;22.65;;;;;;;;;;6288472;22;20012;-96
2023/12/12 16:09:44;;;;;;;43.40;24.60;;;;;;;;;;6278742;22;20012;-93
2023/12/12 16:12:10;;;;;;;44.25;23.25;;;;;;;;;;6281420;22;20030;-91
2023/12/12 16:14:36;;;;;;;47.97;25.42;;;;;;;;;;6278210;22;19992;-93
2023/12/12 16:17:02;;;;;;;55.75;32.00;;;;;;;;;;6273255;22;20437;-93
2023/12/12 16:19:28;;;;;;;55.50;29.80;;;;;;;;;;6279935;22;20004;-93
2023/12/12 16:21:54;;;;;;;54.58;27.63;;;;;;;;;;6273304;22;20070;-93
2023/12/12 16:24:21;;;;;;;57.53;29.48;;;;;;;;;;6273589;22;20003;-94
2023/12/12 16:26:48;;;;;;;48.42;26.77;;;;;;;;;;6273963;22;20307;-92
2023/12/12 16:29:14;;;;;;;56.20;29.55;;;;;;;;;;6274596;22;20053;-93
2023/12/12 16:31:40;;;;;;;60.05;29.85;;;;;;;;;;6276364;22;19981;-94
2023/12/12 16:34:08;;;;;;;53.88;29.70;;;;;;;;;;6288761;22;20004;-91
2023/12/12 16:41:47;;;;;;;74.43;30.03;;;;;;;;;;6220990;23;20031;-92
2023/12/12 16:44:20;;;;;;;68.53;30.25;;;;;;;;;;6198076;23;20016;-96
2023/12/12 16:46:46;;;;;;;74.57;32.78;;;;;;;;;;6223111;23;20012;-94
2023/12/12 16:49:29;;;;;;;70.38;30.52;;;;;;;;;;6208717;23;20024;-94
2023/12/12 16:51:55;;;;;;;60.75;29.85;;;;;;;;;;6200418;23;20039;-96
2023/12/12 16:54:21;;;;;;;58.03;28.67;;;;;;;;;;6195602;23;20005;-93
2023/12/12 16:56:48;;;;;;;60.97;27.85;;;;;;;;;;6193022;23;20091;-92
2023/12/12 16:59:14;;;;;;;58.80;28.80;;;;;;;;;;6202842;23;20069;-93
2023/12/12 17:04:16;;;;;;;72.25;31.63;;;;;;;;;;6220452;22;20029;-91
2023/12/12 17:06:45;;;;;;;71.25;31.50;;;;;;;;;;6193543;23;19997;-91
2023/12/12 17:09:35;;;;;;;67.88;30.42;;;;;;;;;;6231406;23;20041;-93